Airfield :
LOGIN :

Register | Disclaimer

   EN    FR    IT 

 










Legend :    VFR   Marginal VFR   IFR   Intensive IFR   Very Intensive IFR
Visi :
Ceiling :
>= 8 km
>= 3000ft
5 to 8 km
1000 to 3000 ft
1500m to 5 km
500 to 1000 ft
800 to 1500m
200 to 500 ft
< 800m
< 200 ft
Symbols :   Thunderstorms  Fog  Heavy snow  Heavy precipitations  Wind > 20 kt
SIGMETs :     Misc.  Thunderstorms  Icing  Turbulence  Mountain Waves  Volcanic Ashes






- Airport Elevation : 220 ft
- IATA code : CWL


EGFF - Cardiff Rhoose

CURRENT METAR :
  • 172120Z AUTO 08006KT 9999 NCD 02/01 Q1039

EXPIRED METARs :
  • 172050Z AUTO 08007KT 9999 NCD 02/01 Q1039
  • 172020Z AUTO 09006KT 9999 NCD 01/01 Q1039
  • 171950Z AUTO 07005KT 9999 NCD 02/01 Q1039
  • 171920Z AUTO 06003KT 9999 NCD 02/01 Q1038
  • 171850Z AUTO 07004KT 9999 NCD 02/01 Q1038

TAF TAF EGFF
Valid from the 17 at 18:00 until the 18 at 18:00 UTC


171701Z 1718/1818 VRB04KT CAVOK
BECMG 1718/1722 10010KT 3000 BR
TEMPO 1722/1810 0300 FG FZFG VV///
BECMG 1810/1813 6000 NSW BKN020
PROB40
TEMPO 1811/1813 BKN003
BECMG 1813/1815 9999
ATIS : +44 1446 729 319



MET'MAP, your aeronautical weather chart ! - Copyright ORBIFLY December 2007 - Disclaimer

ORBIFLY MET'MAP TEAM :

Programming & Development : Alexandra Zaïnal
Concept & original design : Baudouin d'Aumeries
Assistance for programming : Marc-Olivier Méhu
Technical & hardware support : Manuel Goepfert

Contact : metmap@orbifly.com




SOURCES & CREDITS :

   NOAA